createdAt,value
2018-08-20T00:01:37.868Z,55.40
2018-08-20T00:04:09.135Z,55.70
2018-08-20T00:06:50.281Z,55.60
2018-08-20T00:09:20.324Z,55.70
2018-08-20T00:11:49.263Z,55.90
2018-08-20T00:14:20.232Z,55.90
2018-08-20T00:16:48.741Z,55.90
2018-08-20T00:19:17.401Z,56.20
2018-08-20T00:21:46.185Z,56.00
2018-08-20T00:24:14.737Z,56.20
2018-08-20T00:26:43.271Z,56.30
2018-08-20T00:29:11.791Z,56.30
2018-08-20T00:31:40.401Z,56.60
2018-08-20T00:34:09.066Z,57.20
2018-08-20T00:36:37.582Z,56.70
2018-08-20T00:39:08.177Z,56.80
2018-08-20T00:41:36.719Z,56.80
2018-08-20T00:44:09.437Z,57.10
2018-08-20T00:46:37.948Z,57.00
2018-08-20T00:49:06.443Z,57.10
2018-08-20T00:51:35.282Z,57.00
2018-08-20T00:54:03.893Z,57.10
2018-08-20T00:56:32.414Z,57.20
2018-08-20T00:59:01.515Z,57.40
2018-08-20T01:01:30.075Z,57.40
2018-08-20T01:03:58.891Z,57.40
2018-08-20T01:06:27.436Z,57.30
2018-08-20T01:08:55.995Z,57.50
2018-08-20T01:11:24.443Z,57.60
2018-08-20T01:13:52.964Z,57.60
2018-08-20T01:16:21.533Z,57.70
2018-08-20T01:18:50.186Z,57.60
2018-08-20T01:21:18.711Z,57.70
2018-08-20T01:23:47.303Z,57.80
2018-08-20T01:26:15.798Z,58.00
2018-08-20T01:28:44.315Z,58.00
2018-08-20T01:31:12.835Z,58.20
2018-08-20T01:33:41.465Z,57.90
2018-08-20T01:36:10.133Z,57.70
2018-08-20T01:38:38.641Z,57.70
2018-08-20T01:41:07.127Z,57.50
2018-08-20T01:43:35.727Z,57.50
2018-08-20T01:46:04.262Z,57.60
2018-08-20T01:48:33.104Z,57.70
2018-08-20T01:51:01.772Z,57.20
2018-08-20T01:53:30.392Z,57.30
2018-08-20T01:55:58.883Z,57.20
2018-08-20T01:58:27.494Z,57.20
2018-08-20T02:00:56.076Z,57.00
2018-08-20T02:03:24.598Z,57.10
2018-08-20T02:05:53.103Z,57.20
2018-08-20T02:08:21.639Z,57.30
2018-08-20T02:10:50.167Z,57.30
2018-08-20T02:13:18.691Z,57.30
2018-08-20T02:15:47.375Z,57.50
2018-08-20T02:18:15.996Z,57.60
2018-08-20T02:20:44.604Z,57.60
2018-08-20T02:23:13.070Z,57.60
2018-08-20T02:25:41.622Z,57.60
2018-08-20T02:28:10.140Z,57.50
2018-08-20T02:30:38.801Z,58.40
2018-08-20T02:33:07.355Z,57.60
2018-08-20T02:35:35.857Z,57.80
2018-08-20T02:38:04.502Z,57.90
2018-08-20T02:40:33.675Z,57.90
2018-08-20T02:43:02.232Z,58.10
2018-08-20T02:45:30.885Z,58.10
2018-08-20T02:47:59.520Z,58.20
2018-08-20T02:50:27.995Z,58.20
2018-08-20T02:52:56.535Z,58.40
2018-08-20T02:55:25.062Z,58.50
2018-08-20T02:57:53.604Z,58.70
2018-08-20T03:00:22.132Z,58.80
2018-08-20T03:02:50.659Z,59.00
2018-08-20T03:05:19.167Z,58.80
2018-08-20T03:07:47.746Z,58.80
2018-08-20T03:10:16.235Z,59.00
2018-08-20T03:12:44.816Z,59.20
2018-08-20T03:15:13.295Z,59.10
2018-08-20T03:17:41.758Z,59.20
2018-08-20T03:20:10.299Z,59.20
2018-08-20T03:22:38.893Z,59.20
2018-08-20T03:25:08.121Z,59.20
2018-08-20T03:27:36.887Z,59.30
2018-08-20T03:30:07.052Z,59.50
2018-08-20T03:32:35.624Z,59.40
2018-08-20T03:35:04.502Z,59.60
2018-08-20T03:37:32.993Z,59.60
2018-08-20T03:40:01.535Z,59.70
2018-08-20T03:42:30.021Z,59.90
2018-08-20T03:44:58.620Z,59.70
2018-08-20T03:47:27.215Z,59.70
2018-08-20T03:49:55.859Z,60.60
2018-08-20T03:52:24.392Z,59.90
2018-08-20T03:54:52.919Z,59.70
2018-08-20T03:57:21.536Z,59.80
2018-08-20T03:59:50.020Z,59.80
2018-08-20T04:02:18.575Z,59.90
2018-08-20T04:04:47.080Z,59.80
2018-08-20T04:07:15.688Z,60.00
2018-08-20T04:09:44.219Z,60.00
2018-08-20T04:12:12.703Z,60.10
2018-08-20T04:14:41.295Z,60.00
2018-08-20T04:17:09.795Z,60.00
2018-08-20T04:19:38.355Z,60.00
2018-08-20T04:22:06.843Z,59.90
2018-08-20T04:24:35.323Z,59.80
2018-08-20T04:27:03.874Z,60.00
2018-08-20T04:29:32.332Z,59.80
2018-08-20T04:32:00.835Z,59.70
2018-08-20T04:34:29.551Z,59.80
2018-08-20T04:36:58.068Z,59.90
2018-08-20T04:39:26.610Z,59.70
2018-08-20T04:41:55.096Z,59.80
2018-08-20T04:44:23.599Z,60.10
2018-08-20T04:46:52.070Z,59.90
2018-08-20T04:49:20.586Z,60.00
2018-08-20T04:51:49.056Z,60.50
2018-08-20T04:54:17.559Z,60.70
2018-08-20T04:56:46.027Z,60.80
2018-08-20T04:59:14.547Z,60.80
2018-08-20T05:01:43.156Z,60.80
2018-08-20T05:04:11.632Z,60.70
2018-08-20T05:06:40.157Z,60.90
2018-08-20T05:09:08.930Z,60.80
2018-08-20T05:11:37.592Z,61.10
2018-08-20T05:14:06.138Z,61.20
2018-08-20T05:16:34.608Z,61.20
2018-08-20T05:19:03.311Z,61.60
2018-08-20T05:21:31.768Z,61.40
2018-08-20T05:24:00.263Z,61.60
2018-08-20T05:26:28.770Z,61.30
2018-08-20T05:28:57.397Z,61.30
2018-08-20T05:31:25.920Z,61.20
2018-08-20T05:33:54.466Z,61.20
2018-08-20T05:36:23.007Z,61.20
2018-08-20T05:38:51.515Z,61.20
2018-08-20T05:41:20.096Z,61.00
2018-08-20T05:43:48.612Z,60.70
2018-08-20T05:46:17.147Z,60.90
2018-08-20T05:48:45.641Z,61.00
2018-08-20T05:51:14.171Z,61.10
2018-08-20T05:53:42.688Z,60.80
2018-08-20T05:56:11.192Z,60.90
2018-08-20T05:58:39.718Z,60.50
2018-08-20T06:01:08.256Z,60.50
2018-08-20T06:03:36.888Z,60.30
2018-08-20T06:06:05.924Z,60.00
2018-08-20T06:08:34.419Z,60.50
2018-08-20T06:11:02.959Z,59.20
2018-08-20T06:13:31.461Z,59.10
2018-08-20T06:16:00.002Z,59.10
2018-08-20T06:18:28.688Z,58.90
2018-08-20T06:20:57.167Z,58.00
2018-08-20T06:23:25.773Z,58.20
2018-08-20T06:25:54.337Z,58.90
2018-08-20T06:28:22.952Z,58.60
2018-08-20T06:30:51.584Z,58.20
2018-08-20T06:33:20.159Z,57.80
2018-08-20T06:35:48.833Z,57.90
2018-08-20T06:38:17.244Z,58.00
2018-08-20T06:40:45.732Z,57.80
2018-08-20T06:43:14.207Z,57.90
2018-08-20T06:45:42.711Z,57.80
2018-08-20T06:48:11.226Z,58.00
2018-08-20T06:50:39.963Z,57.80
2018-08-20T06:53:08.527Z,57.80
2018-08-20T06:55:37.091Z,57.80
2018-08-20T06:58:05.632Z,57.80
2018-08-20T07:00:34.296Z,57.60
2018-08-20T07:03:02.896Z,57.70
2018-08-20T07:05:31.417Z,57.60
2018-08-20T07:07:59.892Z,57.40
2018-08-20T07:10:45.652Z,57.30
2018-08-20T07:13:26.659Z,57.20
2018-08-20T07:15:55.402Z,57.30
2018-08-20T07:18:23.892Z,57.40
2018-08-20T07:20:52.526Z,57.20
2018-08-20T07:23:21.084Z,57.00
2018-08-20T07:25:49.583Z,57.10
2018-08-20T07:28:18.114Z,56.80
2018-08-20T07:30:46.895Z,57.10
2018-08-20T07:33:15.566Z,57.00
2018-08-20T07:35:44.250Z,57.10
2018-08-20T07:38:12.925Z,56.80
2018-08-20T07:40:41.496Z,56.80
2018-08-20T07:43:10.067Z,56.70
2018-08-20T07:45:38.735Z,56.80
2018-08-20T07:48:07.587Z,56.50
2018-08-20T07:50:36.088Z,56.80
2018-08-20T07:53:04.640Z,57.00
2018-08-20T07:55:33.350Z,57.00
2018-08-20T07:58:01.944Z,56.50
2018-08-20T08:00:30.576Z,56.60
2018-08-20T08:02:59.137Z,56.30
2018-08-20T08:05:27.683Z,56.10
2018-08-20T08:07:56.239Z,56.10
2018-08-20T08:10:24.819Z,55.80
2018-08-20T08:12:53.384Z,55.80
2018-08-20T08:15:22.003Z,55.70
2018-08-20T08:17:50.527Z,55.70
2018-08-20T08:20:19.174Z,55.70
2018-08-20T08:22:47.751Z,55.50
2018-08-20T08:25:16.257Z,55.60
2018-08-20T08:27:44.791Z,55.40
2018-08-20T08:30:16.172Z,54.80
2018-08-20T08:32:44.830Z,54.70
2018-08-20T08:35:14.212Z,54.60
2018-08-20T08:37:42.885Z,54.70
2018-08-20T08:40:13.163Z,54.60
2018-08-20T08:42:41.726Z,54.70
2018-08-20T08:45:12.888Z,55.10
2018-08-20T08:47:41.654Z,54.60
2018-08-20T08:50:10.215Z,54.70
2018-08-20T08:52:39.667Z,54.30
2018-08-20T08:55:08.820Z,54.70
2018-08-20T08:57:38.192Z,54.90
2018-08-20T09:00:10.552Z,54.50
2018-08-20T09:02:39.154Z,54.10
2018-08-20T09:05:09.078Z,54.00
2018-08-20T09:07:37.555Z,54.40
2018-08-20T09:10:06.974Z,54.30
2018-08-20T09:12:35.541Z,54.30
2018-08-20T09:15:05.108Z,54.30
2018-08-20T09:17:33.622Z,54.30
2018-08-20T09:20:02.218Z,54.00
2018-08-20T09:22:30.810Z,54.10
2018-08-20T09:24:59.323Z,54.00
2018-08-20T09:27:27.905Z,54.00
2018-08-20T09:29:56.776Z,54.00
2018-08-20T09:32:25.399Z,53.40
2018-08-20T09:34:53.893Z,52.60
2018-08-20T09:37:22.411Z,52.50
2018-08-20T09:39:50.931Z,52.40
2018-08-20T09:42:19.456Z,52.80
2018-08-20T09:44:48.147Z,53.20
2018-08-20T09:47:16.667Z,52.50
2018-08-20T09:49:45.267Z,52.50
2018-08-20T09:52:13.783Z,52.30
2018-08-20T09:54:42.311Z,52.70
2018-08-20T09:57:10.803Z,52.60
2018-08-20T09:59:39.553Z,52.30
2018-08-20T10:02:08.527Z,52.40
2018-08-20T10:04:37.040Z,52.00
2018-08-20T10:07:05.665Z,52.40
2018-08-20T10:09:34.171Z,52.60
2018-08-20T10:12:02.879Z,52.20
2018-08-20T10:14:31.404Z,51.90
2018-08-20T10:17:00.095Z,52.10
2018-08-20T10:19:28.623Z,51.90
2018-08-20T10:21:57.279Z,51.60
2018-08-20T10:24:25.863Z,51.50
2018-08-20T10:26:54.435Z,51.00
2018-08-20T10:29:23.075Z,50.80
2018-08-20T10:31:51.607Z,50.90
2018-08-20T10:34:20.129Z,50.90
2018-08-20T10:36:48.672Z,50.20
2018-08-20T10:39:17.178Z,50.20
2018-08-20T10:41:45.876Z,50.00
2018-08-20T10:44:14.359Z,49.80
2018-08-20T10:46:43.011Z,49.80
2018-08-20T10:49:11.621Z,49.60
2018-08-20T10:51:40.518Z,49.60
2018-08-20T10:54:09.046Z,49.30
2018-08-20T10:56:37.716Z,48.90
2018-08-20T10:59:06.542Z,48.90
2018-08-20T11:01:35.184Z,48.90
2018-08-20T11:04:03.835Z,48.30
2018-08-20T11:06:32.391Z,48.00
2018-08-20T11:09:00.882Z,47.40
2018-08-20T11:11:29.539Z,47.10
2018-08-20T11:13:58.242Z,46.70
2018-08-20T11:16:26.873Z,46.80
2018-08-20T11:18:55.409Z,46.40
2018-08-20T11:21:23.902Z,46.00
2018-08-20T11:23:52.408Z,45.50
2018-08-20T11:26:20.985Z,46.00
2018-08-20T11:28:49.554Z,45.70
2018-08-20T11:31:18.096Z,45.40
2018-08-20T11:33:46.594Z,44.30
2018-08-20T11:36:15.127Z,44.70
2018-08-20T11:38:43.766Z,44.50
2018-08-20T11:41:12.308Z,44.40
2018-08-20T11:43:40.966Z,44.90
2018-08-20T11:46:09.485Z,43.90
2018-08-20T11:48:38.310Z,43.80
2018-08-20T11:51:07.883Z,43.60
2018-08-20T11:53:36.575Z,43.60
2018-08-20T11:56:05.439Z,43.30
2018-08-20T11:58:33.980Z,43.20
2018-08-20T12:01:02.802Z,42.70
2018-08-20T12:03:31.900Z,42.80
2018-08-20T12:06:00.822Z,42.30
2018-08-20T12:08:29.352Z,41.60
2018-08-20T12:10:57.985Z,41.40
2018-08-20T12:13:26.695Z,41.30
2018-08-20T12:15:55.215Z,40.90
2018-08-20T12:18:23.717Z,40.90
2018-08-20T12:20:52.232Z,40.90
2018-08-20T12:23:20.875Z,40.40
2018-08-20T12:25:49.375Z,40.50
2018-08-20T12:28:17.934Z,39.70
2018-08-20T12:30:46.476Z,40.60
2018-08-20T12:33:15.013Z,39.60
2018-08-20T12:35:43.608Z,39.10
2018-08-20T12:38:12.179Z,39.20
2018-08-20T12:40:40.660Z,38.80
2018-08-20T12:43:09.282Z,38.60
2018-08-20T12:45:37.774Z,38.10
2018-08-20T12:48:06.293Z,37.50
2018-08-20T12:50:34.875Z,37.70
2018-08-20T12:53:03.396Z,37.70
2018-08-20T12:55:31.962Z,37.50
2018-08-20T12:58:00.661Z,36.50
2018-08-20T13:00:29.260Z,36.30
2018-08-20T13:02:57.808Z,35.80
2018-08-20T13:05:26.340Z,35.90
2018-08-20T13:07:54.829Z,35.70
2018-08-20T13:10:23.401Z,35.80
2018-08-20T13:12:51.950Z,36.60
2018-08-20T13:15:20.526Z,35.20
2018-08-20T13:17:49.112Z,35.60
2018-08-20T13:20:17.623Z,35.60
2018-08-20T13:22:46.111Z,35.60
2018-08-20T13:25:14.644Z,35.60
2018-08-20T13:27:43.151Z,35.40
2018-08-20T13:30:11.703Z,34.90
2018-08-20T13:32:40.230Z,35.10
2018-08-20T13:35:09.024Z,34.90
2018-08-20T13:37:37.965Z,35.10
2018-08-20T13:40:07.080Z,34.90
2018-08-20T13:42:35.594Z,35.20
2018-08-20T13:45:04.588Z,35.20
2018-08-20T13:47:33.298Z,34.80
2018-08-20T13:50:07.288Z,34.70
2018-08-20T13:52:35.827Z,34.90
2018-08-20T13:55:04.367Z,34.90
2018-08-20T13:57:38.235Z,34.50
2018-08-20T14:00:07.101Z,34.50
2018-08-20T14:02:35.652Z,34.60
2018-08-20T14:05:04.344Z,34.50
2018-08-20T14:07:33.036Z,34.60
2018-08-20T14:10:01.643Z,34.50
2018-08-20T14:12:30.175Z,34.30
2018-08-20T14:14:58.900Z,34.20
2018-08-20T14:17:27.532Z,34.10
2018-08-20T14:19:56.064Z,33.30
2018-08-20T14:22:24.875Z,33.90
2018-08-20T14:24:53.389Z,33.70
2018-08-20T14:27:22.016Z,33.60
2018-08-20T14:29:50.690Z,33.60
2018-08-20T14:32:19.298Z,33.90
2018-08-20T14:34:47.808Z,33.80
2018-08-20T14:37:16.435Z,33.90
2018-08-20T14:39:45.047Z,34.10
2018-08-20T14:42:13.705Z,34.20
2018-08-20T14:44:43.697Z,34.70
2018-08-20T14:47:12.525Z,34.70
2018-08-20T14:49:41.312Z,34.90
2018-08-20T14:52:10.288Z,34.80
2018-08-20T14:54:39.431Z,34.90
2018-08-20T14:57:08.291Z,34.80
2018-08-20T14:59:37.306Z,34.70
2018-08-20T15:02:05.916Z,34.80
2018-08-20T15:04:34.412Z,34.40
2018-08-20T15:07:05.645Z,34.40
2018-08-20T15:09:34.498Z,34.80
2018-08-20T15:12:03.024Z,34.90
2018-08-20T15:14:31.787Z,35.00
2018-08-20T15:17:00.320Z,35.20
2018-08-20T15:19:28.897Z,35.20
2018-08-20T15:21:57.513Z,35.10
2018-08-20T15:24:26.216Z,35.30
2018-08-20T15:26:54.752Z,35.60
2018-08-20T15:29:23.315Z,35.60
2018-08-20T15:31:51.941Z,35.90
2018-08-20T15:34:20.609Z,36.00
2018-08-20T15:36:49.159Z,35.90
2018-08-20T15:39:17.819Z,35.80
2018-08-20T15:41:46.454Z,35.60
2018-08-20T15:44:15.039Z,35.70
2018-08-20T15:46:43.632Z,35.60
2018-08-20T15:49:12.210Z,36.10
2018-08-20T15:51:40.752Z,35.70
2018-08-20T15:54:09.303Z,35.80
2018-08-20T15:56:38.063Z,36.00
2018-08-20T15:59:06.751Z,36.30
2018-08-20T16:01:35.349Z,37.10
2018-08-20T16:04:03.945Z,36.60
2018-08-20T16:06:32.625Z,36.80
2018-08-20T16:09:01.151Z,37.10
2018-08-20T16:11:29.678Z,37.00
2018-08-20T16:13:58.317Z,36.90
2018-08-20T16:16:27.211Z,37.30
2018-08-20T16:18:55.834Z,37.70
2018-08-20T16:21:24.353Z,38.00
2018-08-20T16:23:53.104Z,38.10
2018-08-20T16:26:21.671Z,38.20
2018-08-20T16:28:50.177Z,38.30
2018-08-20T16:31:18.780Z,38.70
2018-08-20T16:33:47.356Z,38.90
2018-08-20T16:36:16.102Z,39.10
2018-08-20T16:38:44.963Z,39.60
2018-08-20T16:41:13.532Z,39.70
2018-08-20T16:43:42.061Z,39.70
2018-08-20T16:46:10.628Z,39.70
2018-08-20T16:48:39.207Z,39.90
2018-08-20T16:51:07.804Z,40.10
2018-08-20T16:53:36.521Z,40.30
2018-08-20T16:56:05.128Z,40.70
2018-08-20T16:58:33.683Z,41.00
2018-08-20T17:01:02.276Z,41.20
2018-08-20T17:03:31.311Z,41.40
2018-08-20T17:06:00.012Z,41.60
2018-08-20T17:08:31.669Z,41.80
2018-08-20T17:11:00.490Z,42.20
2018-08-20T17:13:29.653Z,42.40
2018-08-20T17:15:58.286Z,42.70
2018-08-20T17:18:27.326Z,42.80
2018-08-20T17:20:56.354Z,42.80
2018-08-20T17:23:25.343Z,43.00
2018-08-20T17:25:56.530Z,43.20
2018-08-20T17:28:26.386Z,43.30
2018-08-20T17:30:58.637Z,43.40
2018-08-20T17:33:31.117Z,43.60
2018-08-20T17:36:00.022Z,43.70
2018-08-20T17:38:28.639Z,43.90
2018-08-20T17:40:57.272Z,44.00
2018-08-20T17:43:26.031Z,44.90
2018-08-20T17:45:57.773Z,44.70
2018-08-20T17:48:30.737Z,44.80
2018-08-20T17:50:59.916Z,44.90
2018-08-20T17:53:40.056Z,44.90
2018-08-20T17:56:08.642Z,45.10
2018-08-20T17:58:37.226Z,45.30
2018-08-20T18:01:05.918Z,45.20
2018-08-20T18:03:36.139Z,45.60
2018-08-20T18:06:07.125Z,45.90
2018-08-20T18:08:35.868Z,45.80
2018-08-20T18:11:05.507Z,46.20
2018-08-20T18:13:51.954Z,46.50
2018-08-20T18:16:21.853Z,46.50
2018-08-20T18:18:53.820Z,46.90
2018-08-20T18:21:22.632Z,46.90
2018-08-20T18:23:51.215Z,47.20
2018-08-20T18:26:20.156Z,47.20
2018-08-20T18:28:51.692Z,47.20
2018-08-20T18:31:24.238Z,47.80
2018-08-20T18:33:53.245Z,47.40
2018-08-20T18:36:23.916Z,47.70
2018-08-20T18:39:00.249Z,47.80
2018-08-20T18:42:17.232Z,47.70
2018-08-20T18:44:48.229Z,47.70
2018-08-20T18:47:18.297Z,49.50
2018-08-20T18:49:53.435Z,49.30
2018-08-20T18:52:23.133Z,48.60
2018-08-20T18:54:55.870Z,49.00
2018-08-20T18:57:28.692Z,49.40
2018-08-20T18:59:59.416Z,49.50
2018-08-20T19:03:03.031Z,49.50
2018-08-20T19:05:43.812Z,49.60
2018-08-20T19:08:17.040Z,49.80
2018-08-20T19:10:48.055Z,50.00
2018-08-20T19:13:16.690Z,50.20
2018-08-20T19:15:47.820Z,50.40
2018-08-20T19:18:29.360Z,50.60
2018-08-20T19:20:57.985Z,51.00
2018-08-20T19:23:26.680Z,51.20
2018-08-20T19:25:55.434Z,51.50
2018-08-20T19:28:25.164Z,51.60
2018-08-20T19:30:55.482Z,51.70
2018-08-20T19:33:26.607Z,51.80
2018-08-20T19:35:55.817Z,51.90
2018-08-20T19:38:24.676Z,51.80
2018-08-20T19:41:04.411Z,51.90
2018-08-20T19:43:38.476Z,52.10
2018-08-20T19:46:07.190Z,52.20
2018-08-20T19:48:35.785Z,52.50
2018-08-20T19:51:06.207Z,52.40
2018-08-20T19:53:34.892Z,52.60
2018-08-20T19:56:03.529Z,52.50
2018-08-20T19:58:33.931Z,52.60
2018-08-20T20:01:12.286Z,52.60
2018-08-20T20:03:43.669Z,52.70
2018-08-20T20:06:12.692Z,52.50
2018-08-20T20:08:41.293Z,52.30
2018-08-20T20:11:41.964Z,52.40
2018-08-20T20:14:10.773Z,52.40
2018-08-20T20:16:44.733Z,52.60
2018-08-20T20:19:13.662Z,52.60
2018-08-20T20:21:42.630Z,52.70
2018-08-20T20:24:12.081Z,52.70
2018-08-20T20:26:41.266Z,52.70
2018-08-20T20:29:10.971Z,52.80
2018-08-20T20:31:41.060Z,52.90
2018-08-20T20:34:10.069Z,53.10
2018-08-20T20:36:38.923Z,53.30
2018-08-20T20:39:11.976Z,53.40
2018-08-20T20:41:40.814Z,53.50
2018-08-20T20:44:10.619Z,53.70
2018-08-20T20:46:39.391Z,53.90
2018-08-20T20:49:08.219Z,54.00
2018-08-20T20:51:36.787Z,54.10
2018-08-20T20:54:05.808Z,54.20
2018-08-20T20:56:34.473Z,54.30
2018-08-20T20:59:03.197Z,54.30
2018-08-20T21:01:31.886Z,54.30
2018-08-20T21:04:04.485Z,54.30
2018-08-20T21:06:36.724Z,54.30
2018-08-20T21:09:08.562Z,54.50
2018-08-20T21:11:37.731Z,54.50
2018-08-20T21:14:06.507Z,54.50
2018-08-20T21:16:35.044Z,54.70
2018-08-20T21:19:04.764Z,54.80
2018-08-20T21:21:34.069Z,54.90
2018-08-20T21:24:05.397Z,55.00
2018-08-20T21:26:34.053Z,55.10
2018-08-20T21:29:02.567Z,55.30
2018-08-20T21:31:37.231Z,55.70
2018-08-20T21:34:05.886Z,55.80
2018-08-20T21:36:34.623Z,55.80
2018-08-20T21:39:03.407Z,55.90
2018-08-20T21:41:32.093Z,56.10
2018-08-20T21:44:00.839Z,56.10
2018-08-20T21:46:29.581Z,56.20
2018-08-20T21:48:58.554Z,56.40
2018-08-20T21:51:28.663Z,56.50
2018-08-20T21:53:57.896Z,56.60
2018-08-20T21:56:36.444Z,56.80
2018-08-20T21:59:05.196Z,56.80
2018-08-20T22:01:34.490Z,56.90
2018-08-20T22:04:07.434Z,56.90
2018-08-20T22:06:36.695Z,57.00
2018-08-20T22:09:05.904Z,56.90
2018-08-20T22:11:34.425Z,56.90
2018-08-20T22:14:02.990Z,57.00
2018-08-20T22:16:31.651Z,57.20
2018-08-20T22:19:00.424Z,57.30
2018-08-20T22:21:28.944Z,57.40
2018-08-20T22:23:59.874Z,57.40
2018-08-20T22:26:28.600Z,57.30
2018-08-20T22:28:57.739Z,57.20
2018-08-20T22:31:26.528Z,57.60
2018-08-20T22:34:00.232Z,57.10
2018-08-20T22:36:30.315Z,57.00
2018-08-20T22:39:00.111Z,57.00
2018-08-20T22:41:29.973Z,56.90
2018-08-20T22:43:58.917Z,57.10
2018-08-20T22:46:27.514Z,57.20
2018-08-20T22:48:58.723Z,57.30
2018-08-20T22:51:28.468Z,57.30
2018-08-20T22:53:58.495Z,57.10
2018-08-20T22:56:30.504Z,57.10
2018-08-20T22:59:14.064Z,57.00
2018-08-20T23:01:42.879Z,57.00
2018-08-20T23:04:11.488Z,57.80
2018-08-20T23:06:40.064Z,57.30
2018-08-20T23:09:27.067Z,57.50
2018-08-20T23:11:55.833Z,57.60
2018-08-20T23:14:24.499Z,57.50
2018-08-20T23:16:53.527Z,58.10
2018-08-20T23:19:22.193Z,57.30
2018-08-20T23:21:53.802Z,57.30
2018-08-20T23:24:22.303Z,57.50
2018-08-20T23:26:50.895Z,57.60
2018-08-20T23:29:19.492Z,57.70
2018-08-20T23:31:48.143Z,57.70
2018-08-20T23:34:16.782Z,57.70
2018-08-20T23:36:45.295Z,57.70
2018-08-20T23:39:15.284Z,57.90
2018-08-20T23:41:43.908Z,58.10
2018-08-20T23:44:17.122Z,58.10
2018-08-20T23:46:47.355Z,58.10
2018-08-20T23:49:15.895Z,58.20
2018-08-20T23:51:44.667Z,58.20
2018-08-20T23:54:13.823Z,58.30
2018-08-20T23:56:42.441Z,58.30
2018-08-20T23:59:10.970Z,58.30
